Portland, Oregon
Traffic Map
Current Weather Conditions
Portland, Oregon
Few Clouds
Few Clouds
90°
Feels Like: 90°
Wind Chill: 90° Ceiling: Unl
Heat Index: 90° Visibility: 10mi
Dew Point: 57° Wind: 15mph
Humidity: 33% Direction: 320° (NW)
Pressure: 29.94in Gusts: 22mph
Raw Report DataKPDX 312353Z 32013G19KT 10SM FEW065 FEW120 FEW250 32/14 A2994 RMK AO2 SLP139 TCU DSNT N AND E T03220139 10328 20233 56019
Traffic Incident Summary
Active as of:
Severity:
Category:
InformationThere was an issue retrieving the traffic information for this location. Please try a different location or try again shortly.
Advertisements
Track Severe Weather on mobile